sensor_id;sensor_type;location;lat;lon;timestamp;pressure;altitude;pressure_sealevel;temperature;humidity
54556;BME280;57291;37.520;15.106;2022-07-29T00:01:07;100997.59;;;27.06;83.03
54556;BME280;57291;37.520;15.106;2022-07-29T00:03:45;100996.38;;;27.07;82.72
54556;BME280;57291;37.520;15.106;2022-07-29T00:06:13;101003.16;;;27.10;82.65
54556;BME280;57291;37.520;15.106;2022-07-29T00:08:40;100996.38;;;27.11;81.75
54556;BME280;57291;37.520;15.106;2022-07-29T00:11:08;100999.56;;;27.17;81.18
54556;BME280;57291;37.520;15.106;2022-07-29T00:13:36;100994.81;;;27.13;81.82
54556;BME280;57291;37.520;15.106;2022-07-29T00:16:03;100996.38;;;27.11;81.38
54556;BME280;57291;37.520;15.106;2022-07-29T00:18:31;100991.22;;;27.13;81.36
54556;BME280;57291;37.520;15.106;2022-07-29T00:20:59;100986.03;;;27.11;81.15
54556;BME280;57291;37.520;15.106;2022-07-29T00:23:26;100988.00;;;27.11;80.68
54556;BME280;57291;37.520;15.106;2022-07-29T00:25:53;100986.03;;;27.11;80.56
54556;BME280;57291;37.520;15.106;2022-07-29T00:28:20;100989.19;;;27.10;80.44
54556;BME280;57291;37.520;15.106;2022-07-29T00:30:47;100988.00;;;27.07;80.67
54556;BME280;57291;37.520;15.106;2022-07-29T00:33:14;100990.00;;;27.07;80.31
54556;BME280;57291;37.520;15.106;2022-07-29T00:35:42;100988.81;;;27.04;80.42
54556;BME280;57291;37.520;15.106;2022-07-29T00:38:16;100982.44;;;27.04;79.93
54556;BME280;57291;37.520;15.106;2022-07-29T00:40:44;100975.69;;;27.05;79.52
54556;BME280;57291;37.520;15.106;2022-07-29T00:43:13;100973.69;;;27.05;79.60
54556;BME280;57291;37.520;15.106;2022-07-29T00:45:41;100975.69;;;27.05;79.48
54556;BME280;57291;37.520;15.106;2022-07-29T00:48:09;100978.47;;;27.05;79.65
54556;BME280;57291;37.520;15.106;2022-07-29T00:50:38;100978.84;;;27.03;78.96
54556;BME280;57291;37.520;15.106;2022-07-29T00:53:07;100982.03;;;26.98;79.56
54556;BME280;57291;37.520;15.106;2022-07-29T00:55:34;100983.66;;;26.96;79.70
54556;BME280;57291;37.520;15.106;2022-07-29T00:58:02;100983.25;;;26.97;79.48
54556;BME280;57291;37.520;15.106;2022-07-29T01:00:30;100975.28;;;26.96;79.43
54556;BME280;57291;37.520;15.106;2022-07-29T01:02:57;100982.84;;;26.92;79.79
54556;BME280;57291;37.520;15.106;2022-07-29T01:05:26;100980.91;;;26.88;79.67
54556;BME280;57291;37.520;15.106;2022-07-29T01:08:15;100966.94;;;26.85;79.36
54556;BME280;57291;37.520;15.106;2022-07-29T01:10:43;100959.78;;;26.84;78.40
54556;BME280;57291;37.520;15.106;2022-07-29T01:13:11;100970.94;;;26.80;78.29
54556;BME280;57291;37.520;15.106;2022-07-29T01:15:46;100963.00;;;26.75;78.61
54556;BME280;57291;37.520;15.106;2022-07-29T01:18:24;100962.97;;;26.72;78.94
54556;BME280;57291;37.520;15.106;2022-07-29T01:29:02;100976.53;;;26.52;74.95
54556;BME280;57291;37.520;15.106;2022-07-29T01:34:29;100973.31;;;26.46;70.29
54556;BME280;57291;37.520;15.106;2022-07-29T01:37:19;100972.91;;;26.40;69.61
54556;BME280;57291;37.520;15.106;2022-07-29T01:39:49;100981.28;;;26.33;69.33
54556;BME280;57291;37.520;15.106;2022-07-29T01:42:36;100975.28;;;26.28;69.48
54556;BME280;57291;37.520;15.106;2022-07-29T01:45:18;100970.94;;;26.27;70.16
54556;BME280;57291;37.520;15.106;2022-07-29T01:48:03;100979.66;;;26.25;70.48
54556;BME280;57291;37.520;15.106;2022-07-29T01:50:37;100965.75;;;26.22;71.08
54556;BME280;57291;37.520;15.106;2022-07-29T01:53:07;100970.94;;;26.19;71.75
54556;BME280;57291;37.520;15.106;2022-07-29T01:55:42;100961.38;;;26.17;71.99
54556;BME280;57291;37.520;15.106;2022-07-29T01:58:12;100955.00;;;26.13;72.81
54556;BME280;57291;37.520;15.106;2022-07-29T02:00:41;100964.53;;;26.08;73.28
54556;BME280;57291;37.520;15.106;2022-07-29T02:03:11;100947.03;;;26.08;74.05
54556;BME280;57291;37.520;15.106;2022-07-29T02:05:41;100958.97;;;26.05;74.70
54556;BME280;57291;37.520;15.106;2022-07-29T02:08:09;100952.97;;;26.03;74.80
54556;BME280;57291;37.520;15.106;2022-07-29T02:10:38;100951.81;;;26.00;75.34
54556;BME280;57291;37.520;15.106;2022-07-29T02:13:09;100953.38;;;25.98;75.55
54556;BME280;57291;37.520;15.106;2022-07-29T02:15:39;100957.34;;;25.93;75.22
54556;BME280;57291;37.520;15.106;2022-07-29T02:18:12;100957.34;;;25.93;75.72
54556;BME280;57291;37.520;15.106;2022-07-29T02:20:42;100964.88;;;25.92;75.28
54556;BME280;57291;37.520;15.106;2022-07-29T02:23:12;100950.59;;;25.90;75.17
54556;BME280;57291;37.520;15.106;2022-07-29T02:25:41;100952.97;;;25.88;75.51
54556;BME280;57291;37.520;15.106;2022-07-29T02:28:11;100950.97;;;25.85;75.63
54556;BME280;57291;37.520;15.106;2022-07-29T02:30:41;100957.31;;;25.82;75.51
54556;BME280;57291;37.520;15.106;2022-07-29T02:33:14;100959.72;;;25.80;75.42
54556;BME280;57291;37.520;15.106;2022-07-29T02:35:46;100955.72;;;25.81;75.43
54556;BME280;57291;37.520;15.106;2022-07-29T02:38:17;100958.09;;;25.83;74.72
54556;BME280;57291;37.520;15.106;2022-07-29T02:41:08;100962.09;;;25.82;74.94
54556;BME280;57291;37.520;15.106;2022-07-29T02:43:39;100956.94;;;25.80;74.99
54556;BME280;57291;37.520;15.106;2022-07-29T02:46:14;100965.28;;;25.80;74.74
54556;BME280;57291;37.520;15.106;2022-07-29T02:51:54;100960.50;;;25.84;74.75
54556;BME280;57291;37.520;15.106;2022-07-29T02:54:42;100950.56;;;25.83;74.01
54556;BME280;57291;37.520;15.106;2022-07-29T02:57:26;100948.56;;;25.80;73.19
54556;BME280;57291;37.520;15.106;2022-07-29T02:59:59;100946.56;;;25.77;73.06
54556;BME280;57291;37.520;15.106;2022-07-29T03:02:28;100949.69;;;25.72;72.80
54556;BME280;57291;37.520;15.106;2022-07-29T03:04:57;100944.91;;;25.69;73.37
54556;BME280;57291;37.520;15.106;2022-07-29T03:07:27;100947.31;;;25.67;73.23
54556;BME280;57291;37.520;15.106;2022-07-29T03:09:55;100954.06;;;25.66;73.01
54556;BME280;57291;37.520;15.106;2022-07-29T03:12:23;100956.47;;;25.67;73.34
54556;BME280;57291;37.520;15.106;2022-07-29T03:14:51;100957.25;;;25.71;73.16
54556;BME280;57291;37.520;15.106;2022-07-29T03:17:19;100948.91;;;25.75;72.44
54556;BME280;57291;37.520;15.106;2022-07-29T03:19:48;100940.97;;;25.73;72.96
54556;BME280;57291;37.520;15.106;2022-07-29T03:22:15;100946.53;;;25.73;72.30
54556;BME280;57291;37.520;15.106;2022-07-29T03:24:44;100949.69;;;25.72;72.50
54556;BME280;57291;37.520;15.106;2022-07-29T03:27:13;100945.72;;;25.73;72.70
54556;BME280;57291;37.520;15.106;2022-07-29T03:29:40;100946.13;;;25.75;72.04
54556;BME280;57291;37.520;15.106;2022-07-29T03:32:15;100950.13;;;25.78;72.15
54556;BME280;57291;37.520;15.106;2022-07-29T03:34:49;100945.78;;;25.80;72.17
54556;BME280;57291;37.520;15.106;2022-07-29T03:37:16;100950.91;;;25.78;71.98
54556;BME280;57291;37.520;15.106;2022-07-29T03:39:44;100952.91;;;25.74;72.08
54556;BME280;57291;37.520;15.106;2022-07-29T03:42:15;100948.50;;;25.69;72.77
54556;BME280;57291;37.520;15.106;2022-07-29T03:44:45;100946.91;;;25.68;72.87
54556;BME280;57291;37.520;15.106;2022-07-29T03:47:17;100946.53;;;25.70;72.70
54556;BME280;57291;37.520;15.106;2022-07-29T03:49:48;100957.25;;;25.71;72.72
54556;BME280;57291;37.520;15.106;2022-07-29T03:52:17;100959.63;;;25.69;72.43
54556;BME280;57291;37.520;15.106;2022-07-29T03:54:45;100959.63;;;25.66;72.85
54556;BME280;57291;37.520;15.106;2022-07-29T03:57:13;100958.03;;;25.65;72.79
54556;BME280;57291;37.520;15.106;2022-07-29T03:59:42;100961.22;;;25.63;72.17
54556;BME280;57291;37.520;15.106;2022-07-29T04:02:11;100962.81;;;25.61;71.87
54556;BME280;57291;37.520;15.106;2022-07-29T04:04:43;100966.75;;;25.60;72.15
54556;BME280;57291;37.520;15.106;2022-07-29T04:07:14;100969.94;;;25.55;71.13
54556;BME280;57291;37.520;15.106;2022-07-29T04:09:42;100969.50;;;25.53;71.41
54556;BME280;57291;37.520;15.106;2022-07-29T04:12:09;100968.72;;;25.56;71.28
54556;BME280;57291;37.520;15.106;2022-07-29T04:14:36;100967.16;;;25.58;70.72
54556;BME280;57291;37.520;15.106;2022-07-29T04:17:04;100970.75;;;25.62;70.28
54556;BME280;57291;37.520;15.106;2022-07-29T04:19:32;100969.59;;;25.67;69.52
54556;BME280;57291;37.520;15.106;2022-07-29T04:21:59;100981.91;;;25.69;68.94
54556;BME280;57291;37.520;15.106;2022-07-29T04:24:27;100986.69;;;25.72;68.89
54556;BME280;57291;37.520;15.106;2022-07-29T04:26:55;100985.09;;;25.75;68.82
54556;BME280;57291;37.520;15.106;2022-07-29T04:29:22;100980.75;;;25.78;68.98
54556;BME280;57291;37.520;15.106;2022-07-29T04:31:49;100982.00;;;25.84;68.81
54556;BME280;57291;37.520;15.106;2022-07-29T04:34:16;100982.00;;;25.91;68.91
54556;BME280;57291;37.520;15.106;2022-07-29T04:36:45;100983.22;;;25.97;69.01
54556;BME280;57291;37.520;15.106;2022-07-29T04:39:12;100990.00;;;26.03;68.37
54556;BME280;57291;37.520;15.106;2022-07-29T04:41:44;100990.38;;;26.12;68.41
54556;BME280;57291;37.520;15.106;2022-07-29T04:44:12;100990.44;;;26.19;68.21
54556;BME280;57291;37.520;15.106;2022-07-29T04:46:39;100999.56;;;26.27;68.51
54556;BME280;57291;37.520;15.106;2022-07-29T04:49:08;100998.38;;;26.35;68.57
54556;BME280;57291;37.520;15.106;2022-07-29T04:51:35;100998.00;;;26.44;69.34
54556;BME280;57291;37.520;15.106;2022-07-29T04:54:02;101004.81;;;26.54;68.99
54556;BME280;57291;37.520;15.106;2022-07-29T04:56:30;101014.34;;;26.63;68.76
54556;BME280;57291;37.520;15.106;2022-07-29T04:58:57;101016.34;;;26.74;68.80
54556;BME280;57291;37.520;15.106;2022-07-29T05:01:24;101011.16;;;26.83;69.03
54556;BME280;57291;37.520;15.106;2022-07-29T05:03:51;101017.13;;;26.99;69.11
54556;BME280;57291;37.520;15.106;2022-07-29T05:06:25;101019.47;;;27.29;68.35
54556;BME280;57291;37.520;15.106;2022-07-29T05:08:52;101017.44;;;27.41;68.50
54556;BME280;57291;37.520;15.106;2022-07-29T05:11:20;101023.41;;;27.50;68.29
54556;BME280;57291;37.520;15.106;2022-07-29T05:13:52;101022.94;;;27.62;68.08
54556;BME280;57291;37.520;15.106;2022-07-29T05:16:20;101017.31;;;27.80;67.67
54556;BME280;57291;37.520;15.106;2022-07-29T05:18:48;101031.91;;;28.13;67.06
54556;BME280;57291;37.520;15.106;2022-07-29T05:21:15;101029.34;;;28.36;66.54
54556;BME280;57291;37.520;15.106;2022-07-29T05:23:42;101029.38;;;28.40;66.16
54556;BME280;57291;37.520;15.106;2022-07-29T05:26:09;101034.97;;;28.40;68.24
54556;BME280;57291;37.520;15.106;2022-07-29T05:28:37;101031.78;;;28.31;69.71
54556;BME280;57291;37.520;15.106;2022-07-29T05:31:04;101040.53;;;28.33;70.50
54556;BME280;57291;37.520;15.106;2022-07-29T05:33:31;101039.94;;;28.63;70.06
54556;BME280;57291;37.520;15.106;2022-07-29T05:36:05;101039.56;;;29.13;67.51
54556;BME280;57291;37.520;15.106;2022-07-29T05:38:35;101039.63;;;30.08;63.93
54556;BME280;57291;37.520;15.106;2022-07-29T05:41:03;101043.44;;;31.63;59.32
54556;BME280;57291;37.520;15.106;2022-07-29T05:43:31;101038.44;;;33.08;53.47
54556;BME280;57291;37.520;15.106;2022-07-29T05:45:58;101048.13;;;34.59;50.54
54556;BME280;57291;37.520;15.106;2022-07-29T05:48:26;101041.22;;;35.64;48.66
54556;BME280;57291;37.520;15.106;2022-07-29T05:50:54;101047.00;;;36.72;46.19
54556;BME280;57291;37.520;15.106;2022-07-29T05:53:22;101042.50;;;37.21;42.93
54556;BME280;57291;37.520;15.106;2022-07-29T05:55:50;101044.09;;;37.22;42.51
54556;BME280;57291;37.520;15.106;2022-07-29T06:00:47;101057.47;;;38.10;40.89
54556;BME280;57291;37.520;15.106;2022-07-29T06:03:15;101049.25;;;38.21;40.25
54556;BME280;57291;37.520;15.106;2022-07-29T06:05:42;101052.06;;;38.21;40.07
54556;BME280;57291;37.520;15.106;2022-07-29T06:08:10;101057.56;;;37.91;40.97
54556;BME280;57291;37.520;15.106;2022-07-29T06:10:37;101060.13;;;37.62;41.74
54556;BME280;57291;37.520;15.106;2022-07-29T06:13:05;101059.81;;;37.50;41.50
54556;BME280;57291;37.520;15.106;2022-07-29T06:15:32;101061.38;;;36.96;42.40
54556;BME280;57291;37.520;15.106;2022-07-29T06:18:00;101062.66;;;37.32;42.11
54556;BME280;57291;37.520;15.106;2022-07-29T06:20:28;101072.56;;;37.00;43.16
54556;BME280;57291;37.520;15.106;2022-07-29T06:22:59;101065.09;;;36.56;43.73
54556;BME280;57291;37.520;15.106;2022-07-29T06:25:27;101078.94;;;36.82;43.30
54556;BME280;57291;37.520;15.106;2022-07-29T06:27:59;101073.78;;;36.90;42.92
54556;BME280;57291;37.520;15.106;2022-07-29T06:30:26;101071.16;;;37.14;42.89
54556;BME280;57291;37.520;15.106;2022-07-29T06:32:55;101073.34;;;37.00;42.45
54556;BME280;57291;37.520;15.106;2022-07-29T06:35:23;101076.69;;;35.87;44.82
54556;BME280;57291;37.520;15.106;2022-07-29T06:38:08;101077.38;;;36.00;44.86
54556;BME280;57291;37.520;15.106;2022-07-29T06:40:55;101075.38;;;35.79;45.85
54556;BME280;57291;37.520;15.106;2022-07-29T06:43:36;101077.84;;;35.99;45.16
54556;BME280;57291;37.520;15.106;2022-07-29T06:46:19;101085.44;;;36.02;45.52
54556;BME280;57291;37.520;15.106;2022-07-29T06:48:47;101083.78;;;35.69;45.71
54556;BME280;57291;37.520;15.106;2022-07-29T06:51:15;101084.22;;;35.46;46.10
54556;BME280;57291;37.520;15.106;2022-07-29T06:53:50;101086.84;;;35.18;46.73
54556;BME280;57291;37.520;15.106;2022-07-29T06:56:32;101087.16;;;35.20;47.19
54556;BME280;57291;37.520;15.106;2022-07-29T06:59:09;101095.44;;;35.37;46.89
54556;BME280;57291;37.520;15.106;2022-07-29T07:01:39;101101.91;;;34.90;48.04
54556;BME280;57291;37.520;15.106;2022-07-29T07:04:07;101104.66;;;34.55;48.81
54556;BME280;57291;37.520;15.106;2022-07-29T07:06:37;101110.75;;;34.66;49.08
54556;BME280;57291;37.520;15.106;2022-07-29T07:09:05;101107.88;;;34.15;50.65
54556;BME280;57291;37.520;15.106;2022-07-29T07:11:32;101107.69;;;34.22;50.58
54556;BME280;57291;37.520;15.106;2022-07-29T07:14:01;101114.78;;;34.91;48.93
54556;BME280;57291;37.520;15.106;2022-07-29T07:16:30;101113.13;;;35.50;46.96
54556;BME280;57291;37.520;15.106;2022-07-29T07:18:59;101113.38;;;35.78;46.86
54556;BME280;57291;37.520;15.106;2022-07-29T07:21:26;101123.41;;;36.01;46.21
54556;BME280;57291;37.520;15.106;2022-07-29T07:23:56;101117.94;;;36.28;45.54
54556;BME280;57291;37.520;15.106;2022-07-29T07:26:23;101111.81;;;36.70;44.22
54556;BME280;57291;37.520;15.106;2022-07-29T07:28:50;101119.47;;;37.01;42.68
54556;BME280;57291;37.520;15.106;2022-07-29T07:31:17;101127.09;;;36.82;43.91
54556;BME280;57291;37.520;15.106;2022-07-29T07:33:45;101123.94;;;36.71;43.59
54556;BME280;57291;37.520;15.106;2022-07-29T07:36:12;101120.06;;;36.46;44.20
54556;BME280;57291;37.520;15.106;2022-07-29T07:38:39;101126.81;;;36.49;44.19
54556;BME280;57291;37.520;15.106;2022-07-29T07:41:06;101126.94;;;36.45;44.35
54556;BME280;57291;37.520;15.106;2022-07-29T07:43:34;101124.53;;;36.66;43.62
54556;BME280;57291;37.520;15.106;2022-07-29T07:46:02;101124.34;;;36.51;43.84
54556;BME280;57291;37.520;15.106;2022-07-29T07:48:30;101123.69;;;35.93;44.92
54556;BME280;57291;37.520;15.106;2022-07-29T07:50:57;101124.03;;;35.39;46.52
54556;BME280;57291;37.520;15.106;2022-07-29T07:53:24;101122.56;;;34.87;47.98
54556;BME280;57291;37.520;15.106;2022-07-29T07:55:51;101121.59;;;34.55;47.69
54556;BME280;57291;37.520;15.106;2022-07-29T07:58:36;101129.47;;;34.47;48.99
54556;BME280;57291;37.520;15.106;2022-07-29T08:01:04;101128.78;;;34.30;49.74
54556;BME280;57291;37.520;15.106;2022-07-29T08:03:32;101126.53;;;33.83;51.00
54556;BME280;57291;37.520;15.106;2022-07-29T08:05:59;101134.31;;;33.92;50.68
54556;BME280;57291;37.520;15.106;2022-07-29T08:08:27;101134.13;;;33.99;51.21
54556;BME280;57291;37.520;15.106;2022-07-29T08:10:54;101133.06;;;34.35;49.43
54556;BME280;57291;37.520;15.106;2022-07-29T08:13:31;101144.88;;;34.04;50.28
54556;BME280;57291;37.520;15.106;2022-07-29T08:15:59;101149.16;;;34.09;50.56
54556;BME280;57291;37.520;15.106;2022-07-29T08:18:30;101137.88;;;34.09;50.27
54556;BME280;57291;37.520;15.106;2022-07-29T08:20:58;101137.03;;;33.37;51.57
54556;BME280;57291;37.520;15.106;2022-07-29T08:23:26;101142.16;;;33.72;50.87
54556;BME280;57291;37.520;15.106;2022-07-29T08:26:23;101143.50;;;33.96;51.06
54556;BME280;57291;37.520;15.106;2022-07-29T08:28:50;101145.13;;;33.81;50.50
54556;BME280;57291;37.520;15.106;2022-07-29T08:31:18;101145.28;;;33.61;51.75
54556;BME280;57291;37.520;15.106;2022-07-29T08:33:45;101140.19;;;33.56;51.98
54556;BME280;57291;37.520;15.106;2022-07-29T08:36:12;101137.19;;;33.47;51.86
54556;BME280;57291;37.520;15.106;2022-07-29T08:38:39;101145.66;;;33.63;52.00
54556;BME280;57291;37.520;15.106;2022-07-29T08:41:07;101142.41;;;33.77;51.65
54556;BME280;57291;37.520;15.106;2022-07-29T08:43:34;101141.38;;;33.71;51.62
54556;BME280;57291;37.520;15.106;2022-07-29T08:46:04;101143.88;;;33.82;50.86
54556;BME280;57291;37.520;15.106;2022-07-29T08:48:32;101137.94;;;33.34;51.51
54556;BME280;57291;37.520;15.106;2022-07-29T08:51:00;101133.78;;;33.23;52.16
54556;BME280;57291;37.520;15.106;2022-07-29T08:53:30;101136.88;;;33.28;51.62
54556;BME280;57291;37.520;15.106;2022-07-29T08:55:58;101139.13;;;33.04;52.60
54556;BME280;57291;37.520;15.106;2022-07-29T08:58:31;101136.38;;;33.17;52.33
54556;BME280;57291;37.520;15.106;2022-07-29T09:01:03;101146.50;;;32.98;52.69
54556;BME280;57291;37.520;15.106;2022-07-29T09:03:36;101133.97;;;32.83;51.01
54556;BME280;57291;37.520;15.106;2022-07-29T09:06:04;101140.22;;;32.90;51.86
54556;BME280;57291;37.520;15.106;2022-07-29T09:08:32;101135.03;;;32.73;51.82
54556;BME280;57291;37.520;15.106;2022-07-29T09:11:02;101136.78;;;32.66;53.07
54556;BME280;57291;37.520;15.106;2022-07-29T09:13:31;101135.41;;;32.38;54.33
54556;BME280;57291;37.520;15.106;2022-07-29T09:15:58;101134.06;;;32.07;55.11
54556;BME280;57291;37.520;15.106;2022-07-29T09:18:41;101132.44;;;31.89;56.39
54556;BME280;57291;37.520;15.106;2022-07-29T09:21:13;101143.72;;;31.66;56.99
54556;BME280;57291;37.520;15.106;2022-07-29T09:24:08;101133.34;;;31.16;58.27
54556;BME280;57291;37.520;15.106;2022-07-29T09:26:38;101130.31;;;31.06;58.42
54556;BME280;57291;37.520;15.106;2022-07-29T09:31:40;101147.13;;;30.25;61.99
54556;BME280;57291;37.520;15.106;2022-07-29T09:34:11;101137.91;;;29.90;63.36
54556;BME280;57291;37.520;15.106;2022-07-29T09:39:07;101139.91;;;29.90;61.91
54556;BME280;57291;37.520;15.106;2022-07-29T09:41:52;101136.25;;;29.97;62.09
54556;BME280;57291;37.520;15.106;2022-07-29T09:44:24;101137.47;;;29.96;61.92
54556;BME280;57291;37.520;15.106;2022-07-29T09:47:10;101131.75;;;30.03;61.47
54556;BME280;57291;37.520;15.106;2022-07-29T09:50:10;101132.66;;;29.96;60.86
54556;BME280;57291;37.520;15.106;2022-07-29T09:52:51;101134.34;;;30.21;64.30
54556;BME280;57291;37.520;15.106;2022-07-29T09:55:19;101137.44;;;30.30;64.41
54556;BME280;57291;37.520;15.106;2022-07-29T09:57:46;101139.91;;;30.55;63.25
54556;BME280;57291;37.520;15.106;2022-07-29T10:00:18;101133.28;;;30.42;63.71
54556;BME280;57291;37.520;15.106;2022-07-29T10:02:46;101130.97;;;30.02;64.04
54556;BME280;57291;37.520;15.106;2022-07-29T10:05:23;101131.63;;;30.13;61.21
54556;BME280;57291;37.520;15.106;2022-07-29T10:07:53;101132.06;;;30.12;61.55
54556;BME280;57291;37.520;15.106;2022-07-29T10:10:37;101127.00;;;30.34;60.78
54556;BME280;57291;37.520;15.106;2022-07-29T10:13:09;101121.09;;;30.25;59.93
54556;BME280;57291;37.520;15.106;2022-07-29T10:15:43;101127.44;;;30.29;60.90
54556;BME280;57291;37.520;15.106;2022-07-29T10:18:13;101122.06;;;30.42;61.60
54556;BME280;57291;37.520;15.106;2022-07-29T10:20:41;101120.06;;;30.42;56.80
54556;BME280;57291;37.520;15.106;2022-07-29T10:23:09;101122.00;;;30.45;58.42
54556;BME280;57291;37.520;15.106;2022-07-29T10:25:36;101109.16;;;30.75;57.92
54556;BME280;57291;37.520;15.106;2022-07-29T10:28:05;101107.66;;;30.94;57.12
54556;BME280;57291;37.520;15.106;2022-07-29T10:30:32;101112.91;;;31.39;55.99
54556;BME280;57291;37.520;15.106;2022-07-29T10:33:10;101106.09;;;31.60;53.57
54556;BME280;57291;37.520;15.106;2022-07-29T10:36:07;101104.94;;;31.77;51.92
54556;BME280;57291;37.520;15.106;2022-07-29T10:44:20;101089.19;;;31.63;54.01
54556;BME280;57291;37.520;15.106;2022-07-29T10:46:50;101087.59;;;31.82;53.03
54556;BME280;57291;37.520;15.106;2022-07-29T10:49:19;101088.16;;;31.73;54.70
54556;BME280;57291;37.520;15.106;2022-07-29T11:02:44;101091.91;;;31.67;55.48
54556;BME280;57291;37.520;15.106;2022-07-29T11:05:17;101093.69;;;31.37;57.02
54556;BME280;57291;37.520;15.106;2022-07-29T11:08:18;101090.81;;;31.17;58.44
54556;BME280;57291;37.520;15.106;2022-07-29T11:16:13;101092.41;;;31.62;59.43
54556;BME280;57291;37.520;15.106;2022-07-29T11:21:42;101087.28;;;31.37;61.25
54556;BME280;57291;37.520;15.106;2022-07-29T11:24:30;101081.75;;;31.53;59.47
54556;BME280;57291;37.520;15.106;2022-07-29T11:29:48;101078.50;;;31.74;58.53
54556;BME280;57291;37.520;15.106;2022-07-29T11:32:17;101072.16;;;31.70;58.76
54556;BME280;57291;37.520;15.106;2022-07-29T11:35:10;101077.34;;;31.72;56.67
54556;BME280;57291;37.520;15.106;2022-07-29T11:38:22;101081.00;;;31.05;54.60
54556;BME280;57291;37.520;15.106;2022-07-29T11:40:36;101074.81;;;30.67;56.32
54556;BME280;57291;37.520;15.106;2022-07-29T11:43:08;101069.13;;;30.47;58.83
54556;BME280;57291;37.520;15.106;2022-07-29T11:45:46;101070.66;;;30.25;57.31
54556;BME280;57291;37.520;15.106;2022-07-29T11:48:18;101074.69;;;30.20;55.74
54556;BME280;57291;37.520;15.106;2022-07-29T11:50:57;101068.47;;;30.36;57.08
54556;BME280;57291;37.520;15.106;2022-07-29T11:53:25;101065.19;;;30.41;54.51
54556;BME280;57291;37.520;15.106;2022-07-29T11:55:58;101061.38;;;30.55;54.69
54556;BME280;57291;37.520;15.106;2022-07-29T11:58:27;101059.41;;;30.79;54.88
54556;BME280;57291;37.520;15.106;2022-07-29T12:00:55;101055.91;;;30.71;56.56
54556;BME280;57291;37.520;15.106;2022-07-29T12:03:25;101065.34;;;30.57;55.96
54556;BME280;57291;37.520;15.106;2022-07-29T12:06:12;101063.59;;;30.67;57.12
54556;BME280;57291;37.520;15.106;2022-07-29T12:08:44;101065.56;;;30.67;59.21
54556;BME280;57291;37.520;15.106;2022-07-29T12:11:19;101059.09;;;30.46;59.80
54556;BME280;57291;37.520;15.106;2022-07-29T12:13:50;101049.16;;;30.42;59.49
54556;BME280;57291;37.520;15.106;2022-07-29T12:16:19;101046.47;;;30.34;62.88
54556;BME280;57291;37.520;15.106;2022-07-29T12:18:57;101051.28;;;30.34;59.44
54556;BME280;57291;37.520;15.106;2022-07-29T12:21:25;101046.31;;;30.45;59.65
54556;BME280;57291;37.520;15.106;2022-07-29T12:23:56;101048.53;;;30.57;60.85
54556;BME280;57291;37.520;15.106;2022-07-29T12:26:34;101048.72;;;30.70;60.18
54556;BME280;57291;37.520;15.106;2022-07-29T12:29:02;101042.66;;;30.72;59.56
54556;BME280;57291;37.520;15.106;2022-07-29T12:31:37;101047.03;;;30.73;61.06
54556;BME280;57291;37.520;15.106;2022-07-29T12:34:13;101045.91;;;30.70;62.31
54556;BME280;57291;37.520;15.106;2022-07-29T12:36:41;101039.47;;;30.70;62.65
54556;BME280;57291;37.520;15.106;2022-07-29T12:39:10;101038.03;;;30.61;61.59
54556;BME280;57291;37.520;15.106;2022-07-29T12:41:38;101036.63;;;30.77;63.50
54556;BME280;57291;37.520;15.106;2022-07-29T12:44:05;101036.47;;;31.07;61.64
54556;BME280;57291;37.520;15.106;2022-07-29T12:46:33;101039.88;;;30.95;61.43
54556;BME280;57291;37.520;15.106;2022-07-29T12:49:00;101036.41;;;30.88;61.19
54556;BME280;57291;37.520;15.106;2022-07-29T12:51:38;101034.41;;;30.88;60.16
54556;BME280;57291;37.520;15.106;2022-07-29T12:54:13;101046.84;;;30.87;63.77
54556;BME280;57291;37.520;15.106;2022-07-29T12:56:42;101028.25;;;30.70;62.43
54556;BME280;57291;37.520;15.106;2022-07-29T12:59:16;101040.25;;;30.47;64.71
54556;BME280;57291;37.520;15.106;2022-07-29T13:01:45;101031.66;;;30.34;65.86
54556;BME280;57291;37.520;15.106;2022-07-29T13:04:31;101033.50;;;30.44;66.07
54556;BME280;57291;37.520;15.106;2022-07-29T13:07:00;101026.91;;;30.31;66.81
54556;BME280;57291;37.520;15.106;2022-07-29T13:09:44;101034.16;;;30.28;66.41
54556;BME280;57291;37.520;15.106;2022-07-29T13:12:15;101032.47;;;30.34;66.08
54556;BME280;57291;37.520;15.106;2022-07-29T13:14:47;101036.50;;;30.30;66.88
54556;BME280;57291;37.520;15.106;2022-07-29T13:17:21;101040.19;;;29.96;65.53
54556;BME280;57291;37.520;15.106;2022-07-29T13:20:06;101033.59;;;29.79;68.81
54556;BME280;57291;37.520;15.106;2022-07-29T13:22:36;101028.06;;;29.76;69.93
54556;BME280;57291;37.520;15.106;2022-07-29T13:25:03;101031.31;;;29.71;69.79
54556;BME280;57291;37.520;15.106;2022-07-29T13:27:33;101031.31;;;29.71;68.19
54556;BME280;57291;37.520;15.106;2022-07-29T13:30:08;101024.06;;;29.73;68.14
54556;BME280;57291;37.520;15.106;2022-07-29T13:32:35;101035.97;;;29.81;67.80
54556;BME280;57291;37.520;15.106;2022-07-29T13:35:07;101034.19;;;29.94;67.82
54556;BME280;57291;37.520;15.106;2022-07-29T13:37:35;101034.06;;;30.05;67.25
54556;BME280;57291;37.520;15.106;2022-07-29T13:40:09;101027.56;;;30.11;66.43
54556;BME280;57291;37.520;15.106;2022-07-29T13:42:37;101033.53;;;30.13;64.64
54556;BME280;57291;37.520;15.106;2022-07-29T13:45:05;101040.94;;;30.31;64.55
54556;BME280;57291;37.520;15.106;2022-07-29T13:47:33;101039.25;;;30.33;64.16
54556;BME280;57291;37.520;15.106;2022-07-29T13:50:01;101041.38;;;30.53;63.48